Time;durP1;ratioP1;P1;durP2;ratioP2;P2;SDS_P1;SDS_P2;PMS_P1;PMS_P2;Temp;Humidity;BMP_temperature;BMP_pressure;BME280_temperature;BME280_humidity;BME280_pressure;Samples;Min_cycle;Max_cycle;Signal;HPM_P1;HPM_P2
2022/06/15 00:00:44;;;;;;;3.72;1.50;;;;;;;23.07;33.08;101360.72;5065656;28;20486;-72
2022/06/15 00:03:12;;;;;;;3.15;1.55;;;;;;;23.03;33.15;101364.94;5067320;28;20469;-72
2022/06/15 00:05:43;;;;;;;1.98;1.40;;;;;;;23.03;33.25;101358.69;5066867;28;20855;-71
2022/06/15 00:08:11;;;;;;;2.85;1.50;;;;;;;23.00;33.24;101356.47;5066823;28;20407;-71
2022/06/15 00:10:39;;;;;;;2.83;1.60;;;;;;;22.95;33.44;101362.56;5065370;28;20431;-72
2022/06/15 00:13:07;;;;;;;2.47;1.40;;;;;;;22.90;33.80;101365.16;5065686;28;21017;-71
2022/06/15 00:15:34;;;;;;;2.70;1.50;;;;;;;22.83;33.73;101362.59;5065307;28;20408;-70
2022/06/15 00:18:02;;;;;;;3.80;1.55;;;;;;;22.77;33.95;101355.41;5069751;28;20412;-71
2022/06/15 00:20:28;;;;;;;3.20;1.47;;;;;;;22.71;34.18;101359.88;5069100;28;20971;-70
2022/06/15 00:22:57;;;;;;;2.53;1.40;;;;;;;22.76;34.20;101369.16;5066396;28;20416;-71
2022/06/15 00:25:24;;;;;;;2.37;1.60;;;;;;;22.74;34.32;101363.16;5065711;28;20928;-68
2022/06/15 00:27:51;;;;;;;2.70;1.38;;;;;;;22.69;34.14;101366.59;5068188;28;20412;-69
2022/06/15 00:32:08;;;;;;;2.67;1.30;;;;;;;22.56;34.43;101369.50;5068033;27;20825;-71
2022/06/15 00:34:35;;;;;;;2.87;1.30;;;;;;;22.46;34.73;101372.81;5065977;28;20510;-71
2022/06/15 00:37:02;;;;;;;3.53;1.52;;;;;;;22.51;34.47;101370.22;5066610;28;20489;-73
2022/06/15 00:39:29;;;;;;;2.00;1.40;;;;;;;22.47;34.59;101375.28;5066558;28;20491;-70
2022/06/15 00:41:56;;;;;;;3.42;1.40;;;;;;;22.46;34.71;101372.81;5073103;28;20866;-72
2022/06/15 00:44:34;;;;;;;2.10;1.17;;;;;;;22.49;34.36;101366.91;5066180;28;20422;-73
2022/06/15 00:47:31;;;;;;;2.10;1.50;;;;;;;22.53;34.56;101371.63;5074488;27;20412;-70
2022/06/15 00:50:01;;;;;;;3.22;1.60;;;;;;;22.44;34.79;101366.81;5076286;28;20415;-70
2022/06/15 00:52:34;;;;;;;4.03;1.33;;;;;;;22.31;34.88;101373.25;5092228;28;20598;-66
2022/06/15 00:55:06;;;;;;;3.88;1.35;;;;;;;22.32;35.10;101375.69;5085190;28;20418;-71
2022/06/15 00:57:33;;;;;;;4.93;1.48;;;;;;;22.33;35.00;101377.34;5072451;28;20419;-73
2022/06/15 01:00:02;;;;;;;1.70;1.10;;;;;;;22.26;35.10;101383.91;5086739;28;20440;-71
2022/06/15 01:03:21;;;;;;;2.63;1.40;;;;;;;22.29;34.80;101381.59;5120737;27;20404;-71
2022/06/15 01:08:30;;;;;;;3.67;1.50;;;;;;;22.24;35.29;101388.72;5086761;27;20459;-67
2022/06/15 01:12:00;;;;;;;2.65;1.17;;;;;;;22.20;35.03;101382.94;5075332;27;20408;-70
2022/06/15 01:14:43;;;;;;;3.40;1.30;;;;;;;22.29;35.02;101386.16;5066830;28;20416;-69
2022/06/15 01:17:26;;;;;;;2.83;1.50;;;;;;;22.35;35.02;101387.94;5042591;28;20418;-70
2022/06/15 01:20:07;;;;;;;3.58;1.20;;;;;;;22.41;34.88;101383.47;5050908;28;20505;-72
2022/06/15 01:22:58;;;;;;;3.25;1.50;;;;;;;22.48;34.77;101381.50;5054285;28;20432;-70
2022/06/15 01:27:08;;;;;;;2.47;1.30;;;;;;;22.53;34.70;101385.13;5095918;27;20833;-69
2022/06/15 01:30:17;;;;;;;4.00;1.40;;;;;;;22.62;34.86;101380.22;5068402;28;20982;-71
2022/06/15 01:32:56;;;;;;;2.83;1.40;;;;;;;22.64;34.83;101388.09;5074526;28;20915;-69
2022/06/15 01:35:31;;;;;;;4.32;1.38;;;;;;;22.63;34.78;101384.53;5099050;28;20507;-70
2022/06/15 01:37:58;;;;;;;2.55;1.30;;;;;;;;;;5092554;28;20508;-70
2022/06/15 01:40:33;;;;;;;1.90;1.27;;;;;;;22.67;34.74;101396.56;5098744;28;20523;-71
2022/06/15 01:43:04;;;;;;;2.47;1.17;;;;;;;22.75;34.77;101395.38;5073656;28;20500;-71
2022/06/15 01:45:36;;;;;;;2.60;1.13;;;;;;;22.77;34.64;101404.06;5089372;28;20461;-71
2022/06/15 01:49:28;;;;;;;2.30;1.30;;;;;;;22.87;34.57;101407.00;5108593;27;20404;-70
2022/06/15 01:53:06;;;;;;;2.65;1.20;;;;;;;22.94;34.46;101404.19;5114892;27;20919;-72
2022/06/15 01:55:38;;;;;;;3.88;1.52;;;;;;;22.81;34.89;101407.94;5086034;28;21050;-73
2022/06/15 01:58:09;;;;;;;2.67;1.33;;;;;;;22.84;35.02;101404.78;5086347;28;20424;-72
2022/06/15 02:00:36;;;;;;;2.83;1.40;;;;;;;22.89;35.11;101407.59;5085908;28;20414;-69
2022/06/15 02:03:10;;;;;;;4.90;1.42;;;;;;;22.99;35.06;101417.81;5086163;28;20927;-73
2022/06/15 02:05:44;;;;;;;2.57;1.30;;;;;;;23.04;34.60;101414.41;5084652;28;20500;-72
2022/06/15 02:08:18;;;;;;;2.53;1.30;;;;;;;23.01;34.65;101421.13;5085398;28;20766;-71
2022/06/15 02:10:56;;;;;;;2.40;1.30;;;;;;;23.05;34.93;101422.31;5085347;28;20416;-73
2022/06/15 02:13:28;;;;;;;4.50;1.33;;;;;;;23.07;34.63;101422.09;5085218;28;20416;-74
2022/06/15 02:17:46;;;;;;;2.70;1.63;;;;;;;23.15;34.80;101431.72;5058943;27;2064657;-72
2022/06/15 02:20:18;;;;;;;2.42;1.20;;;;;;;23.13;34.85;101433.84;5123734;28;20924;-73
2022/06/15 02:22:47;;;;;;;2.42;1.20;;;;;;;23.06;34.83;101437.47;5123842;28;20408;-72
2022/06/15 02:25:19;;;;;;;2.17;1.30;;;;;;;23.09;34.83;101439.72;5121852;28;20414;-73
2022/06/15 02:27:47;;;;;;;2.50;1.33;;;;;;;23.19;35.28;101446.41;5118119;28;20785;-74
2022/06/15 02:30:18;;;;;;;3.42;1.67;;;;;;;23.19;35.35;101446.41;5123628;28;20502;-71
2022/06/15 02:32:48;;;;;;;2.30;1.40;;;;;;;23.20;35.42;101442.66;5121544;28;20504;-69
2022/06/15 02:35:17;;;;;;;4.55;1.90;;;;;;;23.23;35.98;101447.59;5123050;28;20463;-72
2022/06/15 02:37:45;;;;;;;2.08;1.50;;;;;;;23.25;36.06;101448.19;5120184;28;20490;-72
2022/06/15 02:40:16;;;;;;;5.22;1.50;;;;;;;23.23;36.50;101444.91;5119846;28;20421;-72
2022/06/15 02:42:44;;;;;;;2.65;1.30;;;;;;;23.25;36.60;101450.88;5121525;28;20993;-73
2022/06/15 02:45:18;;;;;;;2.78;1.60;;;;;;;23.29;36.70;101446.63;5123398;28;20468;-71
2022/06/15 02:47:47;;;;;;;2.88;1.48;;;;;;;23.35;36.67;101453.78;5120655;28;20412;-69
2022/06/15 02:50:20;;;;;;;4.63;1.50;;;;;;;23.38;36.89;101450.63;5121113;28;20433;-72
2022/06/15 02:52:52;;;;;;;1.60;1.50;;;;;;;23.40;37.03;101458.50;5118408;28;20448;-69
2022/06/15 02:55:21;;;;;;;3.35;1.73;;;;;;;23.46;37.42;101466.50;5121924;28;20486;-68
2022/06/15 02:57:51;;;;;;;3.47;1.70;;;;;;;23.54;37.80;101462.59;5119045;28;20426;-69
2022/06/15 03:00:21;;;;;;;4.57;1.90;;;;;;;23.60;38.22;101466.22;5122383;28;20413;-67
2022/06/15 03:02:50;;;;;;;4.40;1.90;;;;;;;23.67;38.33;101473.16;5119432;28;20490;-71
2022/06/15 03:05:17;;;;;;;2.80;1.90;;;;;;;23.73;38.48;101475.97;5120413;28;20442;-65
2022/06/15 03:07:44;;;;;;;3.13;2.00;;;;;;;23.77;38.66;101474.41;5118486;28;20920;-70
2022/06/15 03:10:11;;;;;;;2.20;1.90;;;;;;;23.80;39.09;101469.38;5118794;28;20852;-73
2022/06/15 03:12:38;;;;;;;4.82;2.15;;;;;;;23.82;38.90;101483.53;5119577;28;21068;-68
2022/06/15 03:15:06;;;;;;;4.18;2.38;;;;;;;23.85;39.34;101484.91;5122358;28;20498;-74
2022/06/15 03:17:32;;;;;;;3.10;1.70;;;;;;;23.89;39.13;101485.25;5118673;28;21002;-73
2022/06/15 03:20:01;;;;;;;5.63;2.40;;;;;;;23.88;39.01;101492.56;5120579;28;20419;-70
2022/06/15 03:22:28;;;;;;;3.60;2.23;;;;;;;23.90;39.22;101481.50;5115550;28;20415;-66
2022/06/15 03:24:55;;;;;;;5.47;2.20;;;;;;;23.89;39.86;101496.91;5116483;28;20794;-68
2022/06/15 03:27:21;;;;;;;5.28;2.10;;;;;;;23.91;39.90;101500.19;5117146;28;20789;-67
2022/06/15 03:29:50;;;;;;;4.20;2.03;;;;;;;23.93;40.20;101499.97;5106602;28;20507;-65
2022/06/15 03:32:17;;;;;;;6.38;2.50;;;;;;;23.94;40.44;101499.72;5105978;28;21893;-72
2022/06/15 03:34:44;;;;;;;4.05;2.13;;;;;;;23.93;40.23;101499.97;5109211;28;20498;-69
2022/06/15 03:37:13;;;;;;;5.65;2.35;;;;;;;23.96;40.20;101504.91;5104367;28;20423;-73
2022/06/15 03:39:40;;;;;;;7.17;2.23;;;;;;;23.98;40.43;101506.28;5109798;28;20403;-73
2022/06/15 03:42:09;;;;;;;4.50;2.50;;;;;;;23.94;41.63;101507.03;5110699;28;20483;-71
2022/06/15 03:44:37;;;;;;;3.83;2.47;;;;;;;23.92;41.82;101507.25;5109990;28;20426;-70
2022/06/15 03:47:04;;;;;;;4.20;2.50;;;;;;;23.89;42.60;101509.63;5105086;28;20419;-67
2022/06/15 03:49:31;;;;;;;5.25;2.83;;;;;;;23.87;42.55;101504.44;5104422;28;20417;-73
2022/06/15 03:51:58;;;;;;;4.80;3.00;;;;;;;23.89;42.95;101510.44;5106021;28;20412;-67
2022/06/15 03:54:26;;;;;;;5.63;3.17;;;;;;;23.73;43.58;101511.97;5105722;28;21047;-69
2022/06/15 03:56:53;;;;;;;6.88;3.30;;;;;;;23.67;43.88;101507.53;5105461;28;20429;-70
2022/06/15 03:59:21;;;;;;;5.53;3.43;;;;;;;23.62;43.94;101515.53;5106682;28;21691;-72
2022/06/15 04:01:49;;;;;;;5.95;3.30;;;;;;;23.51;44.14;101508.25;5106717;28;20441;-69
2022/06/15 04:04:16;;;;;;;5.05;3.05;;;;;;;23.38;44.26;101520.97;5107135;28;21022;-67
2022/06/15 04:06:44;;;;;;;4.45;2.97;;;;;;;23.49;44.29;101516.63;5101533;28;20493;-66
2022/06/15 04:09:10;;;;;;;5.57;2.70;;;;;;;23.64;44.19;101521.53;5102854;28;20519;-66
2022/06/15 04:14:22;;;;;;;6.53;3.03;;;;;;;23.82;43.49;101526.84;5104083;28;20419;-68
2022/06/15 04:16:53;;;;;;;10.25;3.00;;;;;;;23.84;43.07;101532.00;5103323;28;20514;-68
2022/06/15 04:19:20;;;;;;;4.80;2.90;;;;;;;23.66;42.93;101530.25;5103068;28;20421;-70
2022/06/15 04:21:47;;;;;;;6.50;2.95;;;;;;;23.71;42.86;101535.75;5105550;28;20932;-67
2022/06/15 04:24:15;;;;;;;4.53;2.47;;;;;;;23.61;43.26;101539.06;5100515;28;20507;-69
2022/06/15 04:26:44;;;;;;;5.47;2.87;;;;;;;23.59;43.13;101540.38;5102859;28;21165;-69
2022/06/15 04:29:12;;;;;;;3.30;2.65;;;;;;;23.57;42.86;101540.63;5100017;28;20492;-69
2022/06/15 04:31:39;;;;;;;5.95;2.72;;;;;;;23.58;42.93;101539.53;5102963;28;20491;-67
2022/06/15 04:34:06;;;;;;;4.90;2.40;;;;;;;23.70;42.65;101544.09;5104845;28;20490;-67
2022/06/15 04:36:33;;;;;;;5.38;2.53;;;;;;;23.92;42.55;101549.78;5103356;28;20427;-66
2022/06/15 04:39:01;;;;;;;4.88;2.63;;;;;;;24.39;41.83;101544.19;5102654;28;20431;-68
2022/06/15 04:41:28;;;;;;;4.70;3.20;;;;;;;24.99;40.81;101538.25;5102430;28;20512;-67
2022/06/15 04:43:56;;;;;;;4.75;2.70;;;;;;;25.55;39.47;101540.16;5102278;28;20945;-67
2022/06/15 04:46:23;;;;;;;6.43;2.75;;;;;;;26.09;38.92;101534.09;5101870;28;20486;-67
2022/06/15 04:48:50;;;;;;;4.47;2.80;;;;;;;26.52;37.35;101535.09;5105524;28;20443;-67
2022/06/15 04:51:21;;;;;;;3.80;2.50;;;;;;;26.83;36.63;101541.69;5102566;28;20504;-68
2022/06/15 04:53:48;;;;;;;3.67;2.55;;;;;;;26.83;36.42;101541.69;5101872;28;20416;-69
2022/06/15 04:56:16;;;;;;;4.47;2.40;;;;;;;27.00;36.04;101551.59;5102249;28;20496;-68
2022/06/15 04:58:43;;;;;;;6.07;2.65;;;;;;;27.27;35.88;101543.41;5100808;28;20951;-69
2022/06/15 05:01:12;;;;;;;5.78;2.50;;;;;;;27.68;35.52;101550.97;5101698;28;20426;-69
2022/06/15 05:03:40;;;;;;;3.13;2.30;;;;;;;28.03;34.44;101544.91;5097725;28;20418;-67
2022/06/15 05:06:14;;;;;;;3.08;2.50;;;;;;;28.56;33.18;101553.78;5099618;28;20422;-68
2022/06/15 05:08:41;;;;;;;4.70;2.80;;;;;;;29.10;32.53;101546.13;5099692;28;20488;-68
2022/06/15 05:11:08;;;;;;;3.65;2.10;;;;;;;29.34;32.12;101552.69;5099864;28;20969;-67
2022/06/15 05:13:35;;;;;;;6.85;3.13;;;;;;;29.76;31.38;101555.34;5104304;28;20458;-69
2022/06/15 05:16:02;;;;;;;4.97;2.63;;;;;;;29.68;31.20;101554.78;5102209;28;20498;-69
2022/06/15 05:18:30;;;;;;;3.38;2.38;;;;;;;29.90;30.83;101559.13;5101398;28;20423;-69
2022/06/15 05:20:57;;;;;;;3.90;2.42;;;;;;;30.23;30.71;101554.03;5101515;28;20417;-68
2022/06/15 05:23:24;;;;;;;6.80;2.53;;;;;;;30.64;30.21;101553.78;5102567;28;20441;-68
2022/06/15 05:25:51;;;;;;;4.13;2.70;;;;;;;30.71;29.66;101553.47;5102363;28;20953;-69
2022/06/15 05:28:18;;;;;;;5.00;3.30;;;;;;;30.77;29.24;101555.84;5098701;28;20515;-68
2022/06/15 05:30:45;;;;;;;5.40;2.78;;;;;;;31.01;29.15;101555.97;5103418;28;20486;-69
2022/06/15 05:33:12;;;;;;;3.65;2.38;;;;;;;30.98;28.76;101555.75;5101547;28;20916;-63
2022/06/15 05:35:41;;;;;;;3.60;2.15;;;;;;;30.79;29.12;101555.56;5102185;28;20510;-66
2022/06/15 05:38:08;;;;;;;3.97;2.30;;;;;;;30.98;29.07;101548.31;5103279;28;20502;-68
2022/06/15 05:40:35;;;;;;;3.33;2.30;;;;;;;30.77;28.98;101547.66;5098965;28;20798;-68
2022/06/15 05:43:02;;;;;;;3.53;2.42;;;;;;;31.04;28.46;101549.09;5101364;28;20417;-67
2022/06/15 05:45:29;;;;;;;2.75;2.10;;;;;;;31.11;28.17;101554.25;5103860;28;20443;-68
2022/06/15 05:47:56;;;;;;;2.50;1.98;;;;;;;31.49;27.84;101557.16;5100585;28;20496;-69
2022/06/15 05:50:23;;;;;;;3.35;2.15;;;;;;;31.36;27.72;101556.72;5101711;28;20486;-70
2022/06/15 05:52:51;;;;;;;4.63;2.78;;;;;;;31.90;27.12;101554.75;5099788;28;20418;-68
2022/06/15 05:55:18;;;;;;;5.25;2.00;;;;;;;32.46;26.56;101550.44;5102167;28;20408;-69
2022/06/15 05:57:46;;;;;;;4.75;2.92;;;;;;;33.01;25.60;101560.00;5098593;28;20502;-69
2022/06/15 06:00:15;;;;;;;5.37;3.63;;;;;;;33.37;25.35;101565.69;5101170;28;20420;-68
2022/06/15 06:02:42;;;;;;;5.35;3.00;;;;;;;33.74;24.92;101552.06;5100444;28;20407;-69
2022/06/15 06:05:10;;;;;;;2.67;2.30;;;;;;;34.16;23.83;101567.41;5099937;28;20492;-69
2022/06/15 06:07:37;;;;;;;3.53;2.30;;;;;;;34.28;23.38;101564.94;5097724;28;20470;-69
2022/06/15 06:10:06;;;;;;;4.07;2.08;;;;;;;34.27;23.48;101568.00;5103071;28;20498;-71
2022/06/15 06:12:33;;;;;;;3.15;1.75;;;;;;;33.81;23.98;101566.22;5101343;28;20509;-69
2022/06/15 06:15:00;;;;;;;4.70;1.83;;;;;;;33.32;24.38;101574.84;5100712;28;20967;-67
2022/06/15 06:17:27;;;;;;;2.93;2.00;;;;;;;33.29;24.66;101567.19;5102912;28;20449;-70
2022/06/15 06:19:54;;;;;;;3.90;1.90;;;;;;;33.53;24.34;101575.28;5101950;28;20918;-70
2022/06/15 06:22:21;;;;;;;2.27;1.77;;;;;;;33.01;24.88;101576.47;5102335;28;20494;-67
2022/06/15 06:24:48;;;;;;;2.92;1.65;;;;;;;32.83;24.87;101569.94;5096152;28;20507;-70
2022/06/15 06:27:17;;;;;;;2.70;1.88;;;;;;;32.21;25.83;101579.06;5102702;28;20451;-69
2022/06/15 06:29:44;;;;;;;2.00;1.73;;;;;;;32.42;25.91;101578.78;5102413;28;20426;-71
2022/06/15 06:32:14;;;;;;;3.78;1.70;;;;;;;32.73;25.27;101582.69;5099452;28;20495;-69
2022/06/15 06:34:41;;;;;;;2.72;1.80;;;;;;;33.05;25.32;101580.28;5100857;28;20408;-68
2022/06/15 06:37:13;;;;;;;3.72;2.10;;;;;;;33.32;24.31;101585.84;5096922;28;20508;-69
2022/06/15 06:39:40;;;;;;;2.90;1.92;;;;;;;33.61;24.09;101582.00;5102670;28;20459;-64
2022/06/15 06:42:07;;;;;;;4.63;2.17;;;;;;;34.13;23.76;101589.22;5105365;28;20411;-70
2022/06/15 06:44:36;;;;;;;4.22;2.00;;;;;;;33.71;24.20;101587.31;5100194;28;20458;-68
2022/06/15 06:47:03;;;;;;;5.13;2.30;;;;;;;34.47;23.68;101589.56;5100583;28;20461;-70
2022/06/15 06:49:30;;;;;;;4.10;2.00;;;;;;;35.09;22.81;101581.75;5099905;28;20560;-70
2022/06/15 06:51:57;;;;;;;2.38;1.80;;;;;;;35.63;22.47;101578.91;5095367;28;20417;-68
2022/06/15 06:54:24;;;;;;;4.40;1.70;;;;;;;35.51;22.21;101587.78;5089520;28;20447;-68
2022/06/15 06:56:53;;;;;;;5.75;1.95;;;;;;;34.90;22.81;101584.69;5099826;28;20496;-67
2022/06/15 06:59:20;;;;;;;3.70;2.10;;;;;;;33.41;24.46;101601.63;5095057;28;20448;-65
2022/06/15 07:01:49;;;;;;;2.80;1.80;;;;;;;33.26;24.50;101597.22;5100336;28;20407;-65
2022/06/15 07:04:17;;;;;;;2.40;2.00;;;;;;;32.96;25.58;101591.13;5091934;28;20816;-65
2022/06/15 07:06:45;;;;;;;5.03;2.00;;;;;;;32.76;25.75;101595.03;5112009;28;20482;-66
2022/06/15 07:09:13;;;;;;;3.13;2.00;;;;;;;32.91;25.82;101600.25;5093551;28;20484;-68
2022/06/15 07:11:42;;;;;;;3.60;2.15;;;;;;;32.96;25.54;101596.63;5097582;28;20504;-67
2022/06/15 07:14:09;;;;;;;3.83;2.20;;;;;;;32.47;26.96;101609.69;5096572;28;20403;-66
2022/06/15 07:16:36;;;;;;;2.60;2.28;;;;;;;31.77;27.83;101608.38;5097299;28;20990;-66
2022/06/15 07:19:05;;;;;;;5.43;2.30;;;;;;;31.68;28.02;101604.66;5101472;28;20506;-66
2022/06/15 07:21:32;;;;;;;2.83;2.40;;;;;;;31.37;28.97;101602.19;5099869;28;20484;-67
2022/06/15 07:24:00;;;;;;;5.28;2.80;;;;;;;31.03;29.51;101607.72;5094387;28;20486;-65
2022/06/15 07:26:31;;;;;;;5.00;2.90;;;;;;;30.59;30.08;101595.69;5101768;28;20439;-67
2022/06/15 07:28:58;;;;;;;3.30;2.95;;;;;;;30.04;30.77;101614.81;5098370;28;20922;-67
2022/06/15 07:31:28;;;;;;;4.28;2.40;;;;;;;29.65;31.13;101614.63;5111000;28;20964;-64
2022/06/15 07:33:56;;;;;;;3.20;2.20;;;;;;;28.96;32.17;101609.47;5097457;28;20445;-66
2022/06/15 07:36:26;;;;;;;2.28;2.08;;;;;;;28.50;32.34;101612.09;5093262;28;20413;-65
2022/06/15 07:38:54;;;;;;;4.50;2.40;;;;;;;28.21;33.10;101609.81;5091511;28;20505;-67
2022/06/15 07:41:22;;;;;;;3.43;2.27;;;;;;;28.37;33.16;101626.25;5093554;28;20500;-68
2022/06/15 07:43:50;;;;;;;2.50;2.30;;;;;;;28.12;33.55;101627.78;5093547;28;20919;-68
2022/06/15 07:46:17;;;;;;;3.45;2.47;;;;;;;28.14;33.55;101628.34;5096739;28;20785;-67
2022/06/15 07:51:35;;;;;;;4.15;2.30;;;;;;;27.71;33.70;101632.16;5109882;28;20399;-68
2022/06/15 07:54:04;;;;;;;3.87;2.10;;;;;;;27.62;33.86;101645.47;5108150;28;20411;-67
2022/06/15 07:56:32;;;;;;;4.20;2.53;;;;;;;27.09;35.20;101634.41;5105234;28;20988;-66
2022/06/15 07:58:59;;;;;;;5.00;2.40;;;;;;;27.20;35.45;101647.03;5097649;28;20451;-70
2022/06/15 08:01:26;;;;;;;4.00;2.40;;;;;;;27.34;35.13;101641.19;5091544;28;20486;-73
2022/06/15 08:03:54;;;;;;;5.03;2.60;;;;;;;27.16;35.50;101639.66;5102016;28;20984;-75
2022/06/15 08:06:23;;;;;;;5.47;2.60;;;;;;;27.00;35.99;101644.13;5094472;28;20426;-71
2022/06/15 08:08:51;;;;;;;2.78;2.58;;;;;;;26.83;36.22;101636.91;5091841;28;20974;-76
2022/06/15 08:11:19;;;;;;;4.53;2.50;;;;;;;26.87;36.15;101638.00;5091259;28;20516;-72
2022/06/15 08:13:46;;;;;;;4.45;2.33;;;;;;;27.11;36.23;101634.97;5091628;28;20414;-71
2022/06/15 08:16:15;;;;;;;3.92;2.20;;;;;;;27.16;36.20;101640.47;5091258;28;20496;-71
2022/06/15 08:18:47;;;;;;;4.30;2.65;;;;;;;27.08;35.61;101638.19;5091512;28;20930;-72
2022/06/15 08:21:19;;;;;;;3.92;2.58;;;;;;;26.91;36.40;101643.75;5093545;28;20487;-73
2022/06/15 08:23:49;;;;;;;2.92;2.35;;;;;;;26.66;36.57;101645.13;5091741;28;20488;-73
2022/06/15 08:26:20;;;;;;;4.80;2.50;;;;;;;26.57;36.76;101643.91;5095029;28;20421;-72
2022/06/15 08:28:51;;;;;;;3.33;2.63;;;;;;;26.76;36.71;101649.03;5096812;28;20494;-76
2022/06/15 08:31:19;;;;;;;2.97;2.50;;;;;;;26.68;36.05;101651.13;5096291;28;20453;-77
2022/06/15 08:33:46;;;;;;;5.47;2.60;;;;;;;26.76;36.55;101651.75;5099183;28;20407;-77
2022/06/15 08:36:14;;;;;;;3.58;2.40;;;;;;;26.87;36.47;101658.97;5103950;28;20529;-76
2022/06/15 08:38:42;;;;;;;5.38;2.58;;;;;;;26.91;36.57;101657.38;5098999;28;20528;-77
2022/06/15 08:41:13;;;;;;;3.00;2.40;;;;;;;26.82;36.33;101659.72;5091034;28;20500;-77
2022/06/15 08:43:57;;;;;;;4.20;2.55;;;;;;;26.84;36.27;101670.34;5098782;28;20468;-76
2022/06/15 08:46:41;;;;;;;3.65;2.45;;;;;;;26.59;36.31;101662.72;5097756;28;20407;-79
2022/06/15 08:49:24;;;;;;;3.70;2.60;;;;;;;26.59;36.32;101668.16;5095973;28;20439;-76
2022/06/15 08:51:58;;;;;;;3.42;2.30;;;;;;;26.49;35.83;101658.78;5098862;28;20444;-77
2022/06/15 08:54:30;;;;;;;3.30;2.08;;;;;;;26.46;35.71;101663.91;5104800;28;20442;-80
2022/06/15 08:57:03;;;;;;;3.45;2.35;;;;;;;26.42;36.04;101668.22;5090617;28;20437;-77
2022/06/15 08:59:39;;;;;;;3.85;2.28;;;;;;;26.46;36.27;101669.34;5092768;28;20434;-77
2022/06/15 09:02:13;;;;;;;3.17;2.25;;;;;;;26.70;35.47;101665.34;5101796;28;20486;-77
2022/06/15 09:04:49;;;;;;;3.00;2.30;;;;;;;26.82;34.63;101667.06;5092865;28;20406;-77
2022/06/15 09:07:30;;;;;;;2.60;2.10;;;;;;;26.92;34.92;101674.50;5096675;28;20779;-75
2022/06/15 09:10:15;;;;;;;4.73;2.47;;;;;;;26.72;34.77;101673.22;5107390;28;20482;-77
2022/06/15 09:12:58;;;;;;;2.88;2.17;;;;;;;26.46;35.19;101669.34;5110999;28;20443;-77
2022/06/15 09:15:38;;;;;;;3.97;2.30;;;;;;;26.50;36.09;101667.75;5090805;28;20420;-78
2022/06/15 09:18:11;;;;;;;3.78;2.70;;;;;;;26.52;35.24;101666.47;5090884;28;20577;-80
2022/06/15 09:20:42;;;;;;;3.80;2.15;;;;;;;26.45;35.08;101676.69;5100055;28;20856;-81
2022/06/15 09:23:15;;;;;;;2.50;2.17;;;;;;;26.54;34.73;101670.81;5100319;28;20523;-78
2022/06/15 09:25:46;;;;;;;2.72;2.08;;;;;;;26.57;34.79;101671.13;5099132;28;20412;-79
2022/06/15 09:28:23;;;;;;;3.47;2.10;;;;;;;26.66;35.01;101668.81;5112842;28;20815;-79
2022/06/15 09:30:52;;;;;;;2.92;2.10;;;;;;;26.74;34.44;101668.38;5104314;28;20445;-76
2022/06/15 09:33:25;;;;;;;4.07;2.20;;;;;;;26.76;34.78;101670.78;5096375;28;20453;-77
2022/06/15 09:36:00;;;;;;;3.80;2.03;;;;;;;26.95;33.99;101668.56;5090025;28;20409;-76
2022/06/15 09:38:28;;;;;;;2.78;2.00;;;;;;;27.04;33.78;101677.91;5089961;28;20425;-77
2022/06/15 09:41:01;;;;;;;3.00;2.10;;;;;;;26.93;34.12;101670.72;5093290;28;20502;-81
2022/06/15 09:43:39;;;;;;;4.03;2.40;;;;;;;26.78;33.79;101660.50;5099461;28;20492;-81
2022/06/15 09:46:16;;;;;;;3.03;2.10;;;;;;;26.72;33.98;101664.22;5090154;28;20416;-79
2022/06/15 09:48:58;;;;;;;2.92;2.05;;;;;;;26.81;34.42;101659.97;5089918;28;20779;-82
2022/06/15 09:51:33;;;;;;;3.90;1.92;;;;;;;26.83;33.86;101658.66;5090043;28;20406;-79
2022/06/15 09:54:11;;;;;;;2.40;1.90;;;;;;;26.66;34.18;101664.16;5090158;28;20509;-82
2022/06/15 09:56:40;;;;;;;5.63;2.60;;;;;;;26.91;34.80;101662.81;5090015;28;20505;-76
2022/06/15 09:59:11;;;;;;;4.00;2.20;;;;;;;26.77;34.10;101667.00;5089442;28;20490;-84
2022/06/15 10:01:42;;;;;;;3.70;2.08;;;;;;;26.73;33.90;101663.97;5096126;28;20417;-80
2022/06/15 10:04:17;;;;;;;3.22;2.00;;;;;;;26.92;34.03;101652.75;5110224;28;20478;-79
2022/06/15 10:06:47;;;;;;;3.25;2.10;;;;;;;26.96;34.61;101657.44;5095956;28;20434;-83
2022/06/15 10:09:18;;;;;;;2.58;2.10;;;;;;;27.07;34.01;101659.16;5097153;28;20467;-80
2022/06/15 10:11:48;;;;;;;3.30;2.10;;;;;;;26.96;34.36;101651.97;5089299;28;20415;-79
2022/06/15 10:14:22;;;;;;;3.88;2.00;;;;;;;26.96;34.33;101645.72;5102084;28;20464;-84
2022/06/15 10:16:55;;;;;;;3.27;2.10;;;;;;;26.89;34.13;101648.66;5109832;28;20439;-81
2022/06/15 10:19:24;;;;;;;3.35;1.95;;;;;;;26.86;33.77;101651.88;5109915;28;20419;-81
2022/06/15 10:21:54;;;;;;;3.97;2.10;;;;;;;26.65;34.49;101648.09;5090434;28;20863;-77
2022/06/15 10:24:27;;;;;;;3.67;2.17;;;;;;;26.73;34.07;101639.50;5101735;28;20498;-81
2022/06/15 10:27:23;;;;;;;2.90;2.10;;;;;;;26.82;34.27;101639.88;5109462;28;20407;-79
2022/06/15 10:30:00;;;;;;;2.20;2.00;;;;;;;26.83;34.50;101630.63;5103758;28;20413;-77
2022/06/15 10:32:30;;;;;;;5.23;2.10;;;;;;;26.77;34.46;101627.03;5101955;28;20492;-79
2022/06/15 10:35:14;;;;;;;3.33;2.13;;;;;;;26.84;34.44;101626.81;5099351;28;20480;-81
2022/06/15 10:37:46;;;;;;;2.75;2.10;;;;;;;26.79;34.42;101624.88;5090587;28;20482;-77
2022/06/15 10:40:24;;;;;;;3.72;2.20;;;;;;;26.50;34.24;101626.97;5093533;28;20432;-81
2022/06/15 10:42:55;;;;;;;2.78;2.13;;;;;;;26.69;34.96;101619.34;5100958;28;20451;-79
2022/06/15 10:45:27;;;;;;;2.67;2.00;;;;;;;26.52;34.47;101612.06;5095249;28;20833;-80
2022/06/15 10:48:00;;;;;;;4.60;2.10;;;;;;;26.50;34.56;101621.53;5113579;28;20419;-82
2022/06/15 10:50:31;;;;;;;3.80;2.10;;;;;;;26.56;34.39;101615.09;5101016;28;20445;-79
2022/06/15 10:53:02;;;;;;;3.33;1.95;;;;;;;26.75;34.63;101612.06;5100787;28;20487;-78
2022/06/15 11:04:12;;;;;;;2.40;1.88;;;;;;;26.78;34.27;101598.75;5097973;28;20920;-81
2022/06/15 11:06:43;;;;;;;3.60;2.13;;;;;;;27.09;34.67;101599.03;5098278;28;20937;-82
2022/06/15 11:09:27;;;;;;;2.75;2.10;;;;;;;27.03;34.37;101606.34;5092885;28;20412;-80
2022/06/15 11:11:56;;;;;;;4.65;2.05;;;;;;;27.12;34.09;101597.69;5098323;28;20415;-78
2022/06/15 11:14:27;;;;;;;4.60;2.20;;;;;;;26.97;33.74;101599.19;5101559;28;20407;-79
2022/06/15 11:19:58;;;;;;;3.50;2.00;;;;;;;26.99;33.57;101598.94;5099154;28;20848;-78
2022/06/15 11:22:28;;;;;;;2.20;1.90;;;;;;;27.00;33.27;101604.13;5102612;28;20494;-78
2022/06/15 11:25:01;;;;;;;2.25;1.88;;;;;;;26.93;32.93;101600.78;5093828;28;20413;-84
2022/06/15 11:27:33;;;;;;;3.45;2.40;;;;;;;27.01;33.38;101589.44;5093000;28;20448;-80
2022/06/15 11:30:06;;;;;;;4.55;2.22;;;;;;;27.18;33.70;101585.78;5097801;28;20419;-78
2022/06/15 11:32:41;;;;;;;3.90;1.90;;;;;;;27.23;33.53;101589.34;5100133;28;20492;-79
2022/06/15 11:35:27;;;;;;;3.38;2.00;;;;;;;27.16;33.68;101587.94;5092218;28;20500;-79
2022/06/15 11:37:59;;;;;;;3.55;2.00;;;;;;;27.14;33.22;101590.91;5096175;28;20979;-78
2022/06/15 11:40:34;;;;;;;4.05;2.00;;;;;;;27.17;32.57;101578.66;5105902;28;20452;-78
2022/06/15 11:43:03;;;;;;;2.70;2.30;;;;;;;27.24;33.06;101591.00;5095450;28;20508;-79
2022/06/15 11:45:33;;;;;;;2.92;2.00;;;;;;;27.21;32.82;101588.78;5097668;28;20864;-78
2022/06/15 11:48:13;;;;;;;3.85;1.90;;;;;;;27.17;32.73;101584.97;5105654;28;20974;-83
2022/06/15 11:50:52;;;;;;;2.13;1.90;;;;;;;27.19;32.90;101585.50;5098110;28;20417;-83
2022/06/15 11:53:30;;;;;;;2.80;1.88;;;;;;;27.30;32.53;101585.59;5092062;28;20485;-79
2022/06/15 11:56:04;;;;;;;4.30;2.20;;;;;;;27.39;32.32;101581.34;5107166;28;20809;-76
2022/06/15 11:58:40;;;;;;;2.58;2.00;;;;;;;27.58;31.54;101577.06;5103470;28;20419;-80
2022/06/15 12:01:17;;;;;;;2.70;1.90;;;;;;;27.57;31.49;101585.53;5105817;28;20482;-77
2022/06/15 12:04:15;;;;;;;3.37;2.00;;;;;;;27.71;31.71;101578.50;5092280;28;20496;-78
2022/06/15 12:06:53;;;;;;;4.35;2.10;;;;;;;27.57;31.66;101571.91;5111891;28;20407;-78
2022/06/15 12:09:29;;;;;;;3.08;2.10;;;;;;;27.69;31.62;101571.69;5112577;28;20486;-83
2022/06/15 12:14:57;;;;;;;2.80;1.92;;;;;;;27.57;31.84;101574.63;5105687;28;20781;-82